< < Back
Terminal Aerodrome Forecast


Current Version              Previous Versions:   1  2  3  4  5  6  7  8  9  

Terminal Aerodrome Forecast

991
FTUS42 KFFC 292206 AAA
TAFCSG
TAF AMD
KCSG 292206Z 2922/3018 28010KT P6SM BKN070
     FM300100 26004KT P6SM SCT070
     FM301400 28005KT P6SM FEW030
     FM301600 29007KT P6SM SCT050=



Latest METAR

289
SAUS70 KWBC 301954
MTRCSG
METAR KCSG 301951Z 36007KT 10SM -RA BKN110 29/21 A2998 RMK AO2 RAB41
SLP147 P0000 T02940206


USA.gov is the U.S. government's official web portal to all federal, state and local government web resources and services.